Data for 01/26/2007

Time Sea-Level Adjusted Pressure Absolute Pressure Temperature Relative Humidity Dew Point   
(mb) (inHg) (mb) (inHg) (C) (F) (%) (C) (F)
00:05 1019 30.09 848 25.04 -1.4 29.4 63 -7.5 18.5
00:10 1019 30.09 848 25.04 -1.2 29.9 62 -7.6 18.2
00:15 1019 30.09 848 25.04 -1.3 29.6 63 -7.4 18.6
00:20 1019 30.09 848 25.04 -1.2 29.8 63 -7.5 18.6
00:25 1019 30.09 849 25.07 -1 30.1 62 -7.4 18.6
00:30 1019 30.09 848 25.04 -0.9 30.4 61 -7.5 18.5
00:35 1019 30.09 848 25.04 -0.5 31.1 61 -7.1 19.1
00:40 1019 30.09 849 25.07 -0.5 31.2 60 -7.2 19
00:45 1019 30.09 849 25.07 -0.4 31.2 59 -7.6 18.4
00:50 1019 30.09 849 25.07 -0.3 31.4 60 -7.2 19
00:55 1020 30.12 849 25.07 -0.3 31.4 60 -7.2 19
01:00 1020 30.12 849 25.07 -0.8 30.6 61 -7.3 18.9
01:05 1020 30.12 849 25.07 -0.9 30.4 61 -7.5 18.6
01:10 1020 30.12 849 25.07 -0.9 30.3 62 -7.4 18.7
01:15 1020 30.12 849 25.07 -0.9 30.4 61 -7.6 18.4
01:20 1020 30.12 849 25.07 -0.9 30.4 62 -7.3 18.8
01:25 1020 30.12 849 25.07 -0.8 30.5 61 -7.4 18.7
01:30 1020 30.12 849 25.07 -0.9 30.4 61 -7.5 18.5
01:35 1020 30.12 849 25.07 -1.3 29.7 63 -7.5 18.5
01:40 1020 30.12 849 25.07 -1.6 29.2 63 -7.7 18.1
01:45 1020 30.12 849 25.07 -1.1 30 62 -7.6 18.3
01:50 1020 30.12 849 25.07 -0.9 30.3 61 -7.4 18.6
01:55 1020 30.12 849 25.07 -1 30.2 62 -7.3 18.9
02:00 1020 30.12 849 25.07 -1 30.3 63 -7.2 19.1
02:05 1020 30.12 849 25.07 -0.5 31.1 60 -7.4 18.7
02:10 1020 30.12 849 25.07 -0.7 30.8 62 -7.1 19.3
02:15 1020 30.12 849 25.07 -1.4 29.5 64 -7.2 19
02:20 1020 30.12 849 25.07 -1.5 29.3 62 -7.8 18
02:25 1020 30.12 849 25.07 -1.6 29.2 63 -7.8 18
02:30 1020 30.12 849 25.07 -1.7 29 63 -7.9 17.8
02:35 1020 30.12 849 25.07 -1.9 28.6 63 -8 17.7
02:40 1020 30.12 849 25.07 -2 28.4 64 -7.9 17.7
02:45 1020 30.12 849 25.07 -2.1 28.3 65 -7.9 17.8
02:50 1020 30.12 849 25.07 -2.5 27.4 66 -8 17.5
02:55 1020 30.12 849 25.07 -3 26.5 68 -8.1 17.4
03:00 1020 30.12 849 25.07 -3.1 26.3 68 -8.2 17.2
03:05 1019 30.09 849 25.07 -3.1 26.4 68 -8.2 17.3
03:10 1019 30.09 849 25.07 -3 26.5 68 -8 17.5
03:15 1019 30.09 849 25.07 -2.2 28.1 64 -8 17.6
03:20 1019 30.09 848 25.04 -1.8 28.7 64 -7.7 18.2
03:25 1019 30.09 848 25.04 -1.7 28.9 64 -7.6 18.2
03:30 1019 30.09 848 25.04 -1.5 29.3 64 -7.5 18.4
03:35 1019 30.09 848 25.04 -1.6 29.2 65 -7.4 18.7
03:40 1019 30.09 848 25.04 -1.3 29.6 63 -7.4 18.6
03:45 1019 30.09 849 25.07 -1.2 29.8 63 -7.4 18.7
03:50 1019 30.09 849 25.07 -0.9 30.3 62 -7.4 18.7
03:55 1020 30.12 849 25.07 -0.5 31 59 -7.5 18.5
04:00 1019 30.09 849 25.07 -0.4 31.3 59 -7.4 18.6
04:05 1019 30.09 849 25.07 -1 30.2 62 -7.3 18.8
04:10 1019 30.09 849 25.07 -1.8 28.8 64 -7.7 18.2
04:15 1019 30.09 849 25.07 -2 28.3 64 -7.9 17.8
04:20 1019 30.09 849 25.07 -1.7 29 64 -7.6 18.3
04:25 1019 30.09 849 25.07 -2.1 28.3 67 -7.5 18.6
04:30 1019 30.09 849 25.07 -2.5 27.6 66 -8 17.6
04:35 1019 30.09 849 25.07 -2.7 27.2 67 -7.9 17.7
04:40 1019 30.09 849 25.07 -2.6 27.4 66 -8 17.6
04:45 1019 30.09 849 25.07 -2.8 27 66 -8.3 17.1
04:50 1019 30.09 849 25.07 -2.8 27 66 -8.2 17.2
04:55 1020 30.12 849 25.07 -2.7 27.1 66 -8.2 17.2
05:00 1020 30.12 849 25.07 -3.1 26.5 68 -8.2 17.2
05:05 1020 30.12 849 25.07 -3.3 26 69 -8.2 17.3
05:10 1020 30.12 849 25.07 -3.8 25.2 71 -8.3 17
05:15 1020 30.12 849 25.07 -3.3 26.1 66 -8.7 16.3
05:20 1020 30.12 849 25.07 -2.7 27.2 64 -8.6 16.5
05:25 1019 30.09 849 25.07 -2.8 26.9 64 -8.7 16.4
05:30 1019 30.09 849 25.07 -2.8 27 64 -8.7 16.4
05:35 1020 30.12 849 25.07 -2.9 26.8 63 -8.9 16
05:40 1020 30.12 849 25.07 -3.2 26.2 64 -9.1 15.7
05:45 1020 30.12 849 25.07 -3.5 25.7 66 -9.1 15.7
05:50 1020 30.12 849 25.07 -4.2 24.4 71 -8.7 16.3
05:55 1020 30.12 849 25.07 -4 24.8 68 -9 15.8
06:00 1020 30.12 849 25.07 -3.9 25.1 68 -8.9 16
06:05 1020 30.12 849 25.07 -4 24.7 68 -9 15.7
06:10 1020 30.12 849 25.07 -4 24.9 69 -8.9 16
06:15 1020 30.12 849 25.07 -3.5 25.7 67 -8.9 16.1
06:20 1020 30.12 849 25.07 -2.9 26.7 64 -8.9 16.1
06:25 1020 30.12 849 25.07 -2.9 26.8 64 -8.7 16.3
06:30 1020 30.12 849 25.07 -3.1 26.4 65 -8.7 16.3
06:35 1020 30.12 849 25.07 -3.1 26.4 65 -8.7 16.3
06:40 1020 30.12 849 25.07 -3.7 25.3 67 -8.9 15.9
06:45 1020 30.12 849 25.07 -4.2 24.5 69 -9 15.9
06:50 1020 30.12 849 25.07 -4 24.8 69 -8.8 16.2
06:55 1020 30.12 849 25.07 -3.5 25.7 68 -8.6 16.6
07:00 1020 30.12 849 25.07 -3.2 26.2 68 -8.4 17
07:05 1020 30.12 849 25.07 -3.6 25.6 69 -8.5 16.8
07:10 1020 30.12 849 25.07 -4.4 24 72 -8.7 16.3
07:15 1020 30.12 849 25.07 -4.3 24.3 72 -8.7 16.4
07:20 1020 30.12 849 25.07 -3.9 25 71 -8.5 16.7
07:25 1020 30.12 849 25.07 -3.8 25.1 70 -8.5 16.8
07:30 1020 30.12 849 25.07 -4 24.9 71 -8.5 16.7
07:35 1020 30.12 849 25.07 -3.8 25.2 70 -8.5 16.7
07:40 1020 30.12 849 25.07 -3.8 25.1 70 -8.5 16.8
07:45 1020 30.12 849 25.07 -3.8 25.1 71 -8.4 16.9
07:50 1020 30.12 849 25.07 -3.6 25.6 70 -8.2 17.2
07:55 1020 30.12 849 25.07 -3.5 25.8 68 -8.5 16.8
08:00 1020 30.12 849 25.07 -3.9 25 71 -8.5 16.7
08:05 1020 30.12 849 25.07 -4.2 24.4 71 -8.7 16.4
08:10 1020 30.12 849 25.07 -4 24.7 71 -8.5 16.6
08:15 1019 30.09 849 25.07 -3.6 25.4 70 -8.4 16.9
08:20 1019 30.09 849 25.07 -3 26.5 67 -8.3 17.1
08:25 1019 30.09 849 25.07 -2.7 27.2 66 -8.2 17.2
08:30 1019 30.09 849 25.07 -2.9 26.7 66 -8.4 16.8
08:35 1019 30.09 849 25.07 -3.1 26.4 66 -8.6 16.6
08:40 1020 30.12 849 25.07 -3 26.6 66 -8.5 16.6
08:45 1020 30.12 849 25.07 -2.6 27.3 64 -8.5 16.7
08:50 1019 30.09 849 25.07 -2.5 27.5 64 -8.5 16.7
08:55 1020 30.12 849 25.07 -2.5 27.6 63 -8.6 16.6
09:00 1020 30.12 849 25.07 -2.7 27.2 61 -9.1 15.6
09:05 1020 30.12 849 25.07 -2.8 27 63 -8.8 16.1
09:10 1020 30.12 849 25.07 -2.9 26.9 63 -8.9 16
09:15 1020 30.12 849 25.07 -2.7 27.2 62 -8.9 16
09:20 1020 30.12 849 25.07 -2.1 28.2 60 -8.8 16.1
09:25 1020 30.12 849 25.07 -1.7 29 59 -8.7 16.4
09:30 1020 30.12 849 25.07 -1.8 28.7 61 -8.4 16.9
09:35 1020 30.12 849 25.07 -1.6 29.1 60 -8.4 16.8
09:40 1020 30.12 849 25.07 -1.4 29.5 59 -8.4 16.9
09:45 1019 30.09 849 25.07 -1 30.2 58 -8.3 17
09:50 1019 30.09 849 25.07 -0.4 31.3 56 -8.2 17.2
09:55 1020 30.12 849 25.07 0.7 33.2 52 -8.1 17.5
10:00 1020 30.12 849 25.07 1.2 34.1 51 -7.9 17.7
10:05 1020 30.12 849 25.07 1.4 34.6 50 -7.9 17.8
10:10 1020 30.12 849 25.07 2.1 35.8 48 -7.8 18
10:15 1020 30.12 849 25.07 3 37.3 46 -7.5 18.5
10:20 1020 30.12 849 25.07 3.1 37.6 45 -7.7 18.1
10:25 1020 30.12 849 25.07 3.8 38.9 44 -7.4 18.6
10:30 1019 30.09 849 25.07 4.4 40 43 -7.2 19
10:35 1019 30.09 849 25.07 4.6 40.3 42 -7.3 18.8
10:40 1019 30.09 849 25.07 4.6 40.2 42 -7.3 18.8
10:45 1019 30.09 849 25.07 4 39.3 43 -7.4 18.6
10:50 1019 30.09 849 25.07 4.4 39.9 42 -7.5 18.4
10:55 1019 30.09 849 25.07 4.6 40.3 42 -7.1 19.2
11:00 1019 30.09 849 25.07 4.9 40.7 40 -7.5 18.5
11:05 1019 30.09 849 25.07 4.8 40.7 41 -7.4 18.7
11:10 1019 30.09 848 25.04 4.9 40.9 42 -6.9 19.5
11:15 1019 30.09 848 25.04 5.1 41.1 41 -7.1 19.2
11:20 1019 30.09 848 25.04 4.5 40.1 42 -7.3 18.9
11:25 1019 30.09 848 25.04 5.2 41.4 40 -7.3 18.9
11:30 1019 30.09 848 25.04 5.3 41.5 40 -7.3 18.9
11:35 1019 30.09 848 25.04 5.4 41.7 41 -6.8 19.8
11:40 1019 30.09 848 25.04 5.9 42.6 40 -6.6 20.1
11:45 1019 30.09 848 25.04 6.2 43.1 40 -6.4 20.5
11:50 1019 30.09 848 25.04 6.3 43.4 40 -6.4 20.5
11:55 1019 30.09 848 25.04 6.1 43 41 -6.2 20.8
12:00 1019 30.09 848 25.04 6.2 43.1 41 -6.2 20.8
12:05 1019 30.09 848 25.04 6.1 42.9 40 -6.5 20.4
12:10 1019 30.09 848 25.04 5.7 42.3 42 -6.2 20.8
12:15 1019 30.09 848 25.04 5.7 42.3 40 -6.9 19.6
12:20 1018 30.06 848 25.04 5.5 41.9 41 -6.8 19.7
12:25 1018 30.06 848 25.04 5.3 41.5 41 -6.9 19.6
12:30 1018 30.06 848 25.04 5.5 41.9 40 -6.9 19.6
12:35 1018 30.06 848 25.04 5.4 41.6 41 -6.9 19.7
12:40 1018 30.06 848 25.04 4.2 39.6 43 -7.3 18.8
12:45 1018 30.06 848 25.04 3.8 38.9 43 -7.6 18.3
12:50 1018 30.06 847 25.01 3.7 38.7 44 -7.4 18.7
12:55 1018 30.06 847 25.01 3.1 37.6 48 -7 19.5
13:00 1018 30.06 847 25.01 2.4 36.3 50 -7.1 19.2
13:05 1018 30.06 847 25.01 2.7 36.8 49 -7.1 19.3
13:10 1018 30.06 847 25.01 2.9 37.2 49 -6.8 19.8
13:15 1018 30.06 847 25.01 3.6 38.5 45 -7.3 18.9
13:20 1018 30.06 847 25.01 4 39.2 45 -6.9 19.5
13:25 1018 30.06 847 25.01 3.8 38.9 47 -6.4 20.5
13:30 1018 30.06 847 25.01 3.6 38.5 46 -7 19.4
13:35 1018 30.06 847 25.01 3.1 37.6 48 -6.8 19.7
13:40 1018 30.06 847 25.01 2.9 37.2 49 -6.9 19.6
13:45 1018 30.06 847 25.01 2.8 37 48 -7.2 19.1
13:50 1018 30.06 847 25.01 2.8 37 48 -7.1 19.3
13:55 1018 30.06 847 25.01 2.7 36.9 46 -7.7 18.2
14:00 1018 30.06 847 25.01 2.8 37.1 47 -7.5 18.5
14:05 1018 30.06 847 25.01 3.3 38 45 -7.4 18.7
14:10 1018 30.06 847 25.01 3.1 37.6 46 -7.5 18.5
14:15 1018 30.06 847 25.01 3 37.4 45 -7.8 18
14:20 1018 30.06 847 25.01 3.3 37.9 42 -8.4 16.9
14:25 1017 30.03 847 25.01 4 39.2 40 -8.3 17
14:30 1017 30.03 847 25.01 4.7 40.5 39 -8.1 17.4
14:35 1017 30.03 847 25.01 4.7 40.4 39 -8 17.6
14:40 1017 30.03 847 25.01 4.7 40.5 39 -8.2 17.3
14:45 1017 30.03 847 25.01 4.5 40.2 39 -8.2 17.2
14:50 1017 30.03 847 25.01 4.3 39.7 39 -8.7 16.4
14:55 1017 30.03 847 25.01 4.3 39.8 38 -8.7 16.3
15:00 1017 30.03 847 25.01 4.7 40.4 38 -8.5 16.7
15:05 1017 30.03 847 25.01 4.8 40.6 36 -9.1 15.6
15:10 1017 30.03 847 25.01 5 40.9 37 -8.7 16.3
15:15 1017 30.03 846 24.98 5.3 41.5 35 -9 15.7
15:20 1017 30.03 847 25.01 5.3 41.5 34 -9.2 15.4
15:25 1017 30.03 846 24.98 5.6 42 34 -9.1 15.7
15:30 1017 30.03 846 24.98 5.8 42.5 34 -8.9 16
15:35 1017 30.03 846 24.98 5.9 42.7 34 -8.9 15.9
15:40 1017 30.03 846 24.98 5.5 41.8 35 -9 15.9
15:45 1017 30.03 846 24.98 5.9 42.6 33 -9.3 15.3
15:50 1017 30.03 846 24.98 5.5 41.8 34 -9.3 15.3
15:55 1017 30.03 846 24.98 5.2 41.3 35 -9.2 15.5
16:00 1017 30.03 846 24.98 5.6 42.1 34 -9.2 15.5
16:05 1017 30.03 846 24.98 6 42.8 32 -9.4 15.1
16:10 1017 30.03 846 24.98 5.2 41.3 35 -9.2 15.4
16:15 1017 30.03 846 24.98 4.7 40.4 36 -9.1 15.5
16:20 1017 30.03 846 24.98 4.4 39.8 37 -9 15.8
16:25 1017 30.03 846 24.98 4.7 40.4 35 -9.4 15.1
16:30 1017 30.03 846 24.98 5.3 41.6 34 -9.4 15
16:35 1017 30.03 846 24.98 5.6 42.1 34 -9.1 15.7
16:40 1017 30.03 846 24.98 5.9 42.6 34 -9 15.8
16:45 1017 30.03 846 24.98 5.4 41.8 35 -8.9 16.1
16:50 1017 30.03 846 24.98 4.7 40.5 36 -9.3 15.3
16:55 1017 30.03 846 24.98 4.5 40.1 36 -9.2 15.4
17:00 1017 30.03 846 24.98 4.3 39.8 38 -8.6 16.5
17:05 1017 30.03 846 24.98 3.1 37.6 42 -8.5 16.6
17:10 1017 30.03 846 24.98 2 35.6 45 -8.7 16.3
17:15 1017 30.03 846 24.98 1.6 34.9 46 -8.7 16.3
17:20 1017 30.03 846 24.98 1.5 34.7 47 -8.7 16.3
17:25 1017 30.03 846 24.98 1.3 34.3 48 -8.7 16.4
17:30 1017 30.03 846 24.98 1.3 34.3 48 -8.6 16.5
17:35 1017 30.03 846 24.98 0.7 33.3 50 -8.6 16.5
17:40 1017 30.03 846 24.98 0.2 32.4 51 -8.8 16.2
17:45 1017 30.03 846 24.98 -0 32 53 -8.5 16.6
17:50 1017 30.03 846 24.98 0.2 32.3 52 -8.6 16.6
17:55 1017 30.03 846 24.98 -0 31.9 53 -8.4 16.9
18:00 1017 30.03 846 24.98 -0.4 31.3 53 -8.8 16.1
18:05 1017 30.03 846 24.98 -0.5 31 51 -9.4 15
18:10 1017 30.03 846 24.98 -0.5 31 53 -9.1 15.7
18:15 1017 30.03 846 24.98 -1.2 29.8 55 -9.1 15.6
18:20 1017 30.03 847 25.01 -1.6 29.1 55 -9.5 14.8
18:25 1017 30.03 847 25.01 -1.6 29.1 54 -9.7 14.5
18:30 1017 30.03 847 25.01 -1.8 28.7 57 -9.3 15.2
18:35 1018 30.06 847 25.01 -1.5 29.4 55 -9.4 15.1
18:40 1018 30.06 847 25.01 -1 30.2 53 -9.3 15.3
18:45 1018 30.06 847 25.01 -1 30.2 55 -9 15.9
18:50 1018 30.06 847 25.01 -1.4 29.5 56 -9 15.8
18:55 1018 30.06 847 25.01 -1.5 29.3 57 -9.1 15.7
19:00 1018 30.06 847 25.01 -1.6 29.1 56 -9.2 15.4
19:05 1018 30.06 847 25.01 -1.8 28.7 57 -9.3 15.2
19:10 1018 30.06 847 25.01 -1.9 28.6 56 -9.5 14.8
19:15 1018 30.06 847 25.01 -2 28.4 57 -9.5 14.9
19:20 1018 30.06 848 25.04 -2.1 28.2 57 -9.4 15.1
19:25 1019 30.09 848 25.04 -2.3 27.9 58 -9.5 14.9
19:30 1019 30.09 848 25.04 -2.5 27.6 59 -9.5 14.9
19:35 1019 30.09 848 25.04 -2.7 27.1 59 -9.7 14.6
19:40 1019 30.09 848 25.04 -2.9 26.7 59 -9.8 14.3
19:45 1019 30.09 848 25.04 -3.2 26.3 60 -9.8 14.4
19:50 1019 30.09 848 25.04 -3.4 25.9 61 -9.9 14.2
19:55 1019 30.09 848 25.04 -3.5 25.7 61 -10 14.1
20:00 1019 30.09 848 25.04 -3.7 25.3 62 -10 13.9
20:05 1019 30.09 848 25.04 -4 24.9 62 -10.2 13.7
20:10 1019 30.09 848 25.04 -4.1 24.7 62 -10.3 13.5
20:15 1019 30.09 848 25.04 -4.1 24.6 63 -10.2 13.6
20:20 1019 30.09 848 25.04 -4.3 24.3 62 -10.4 13.2
20:25 1019 30.09 848 25.04 -4.5 23.9 62 -10.7 12.8
20:30 1019 30.09 849 25.07 -4.6 23.8 62 -10.8 12.6
20:35 1019 30.09 849 25.07 -4.6 23.7 62 -10.9 12.3
20:40 1019 30.09 849 25.07 -4.7 23.5 62 -11 12.3
20:45 1020 30.12 849 25.07 -4.8 23.4 62 -10.9 12.4
20:50 1020 30.12 849 25.07 -4.7 23.6 63 -10.7 12.7
20:55 1020 30.12 849 25.07 -4.6 23.7 62 -10.8 12.6
21:00 1020 30.12 849 25.07 -4.6 23.7 63 -10.7 12.7
21:05 1020 30.12 849 25.07 -4.6 23.7 62 -10.8 12.6
21:10 1020 30.12 850 25.1 -4.7 23.6 63 -10.8 12.6
21:15 1020 30.12 850 25.1 -4.7 23.5 63 -10.7 12.7
21:20 1021 30.15 850 25.1 -4.7 23.5 64 -10.6 13
21:25 1021 30.15 850 25.1 -4.7 23.5 63 -10.8 12.5
21:30 1021 30.15 850 25.1 -4.8 23.3 63 -10.8 12.6
21:35 1021 30.15 850 25.1 -4.9 23.1 62 -11 12.1
21:40 1021 30.15 850 25.1 -5 23.1 63 -10.9 12.3
21:45 1021 30.15 850 25.1 -4.9 23.2 63 -10.9 12.4
21:50 1021 30.15 850 25.1 -4.8 23.4 62 -10.9 12.3
21:55 1021 30.15 850 25.1 -4.6 23.7 63 -10.7 12.8
22:00 1021 30.15 850 25.1 -4.4 24 63 -10.4 13.3
22:05 1021 30.15 851 25.13 -4.6 23.7 63 -10.6 12.9
22:10 1021 30.15 851 25.13 -4.5 24 62 -10.6 12.9
22:15 1021 30.15 851 25.13 -4.4 24.1 62 -10.5 13.1
22:20 1021 30.15 851 25.13 -4.1 24.7 61 -10.4 13.2
22:25 1022 30.18 851 25.13 -3.9 24.9 61 -10.3 13.4
22:30 1022 30.18 851 25.13 -3.8 25.2 63 -9.8 14.4
22:35 1022 30.18 851 25.13 -4 24.9 65 -9.5 14.9
22:40 1022 30.18 851 25.13 -3.8 25.1 66 -9.3 15.3
22:45 1022 30.18 851 25.13 -3.9 25.1 66 -9.3 15.2
22:50 1022 30.18 851 25.13 -4.2 24.5 68 -9.2 15.4
22:55 1022 30.18 851 25.13 -4.4 24 67 -9.7 14.6
23:00 1022 30.18 852 25.16 -4.4 24.2 66 -9.7 14.5
23:05 1022 30.18 852 25.16 -4.5 23.9 64 -10.3 13.5
23:10 1023 30.21 852 25.16 -4.6 23.6 67 -9.9 14.2
23:15 1023 30.21 852 25.16 -4.7 23.6 68 -9.7 14.5
23:20 1023 30.21 852 25.16 -4.7 23.6 68 -9.7 14.5
23:25 1023 30.21 852 25.16 -4.8 23.3 69 -9.6 14.7
23:30 1023 30.21 852 25.16 -5 23 69 -9.9 14.3
23:35 1023 30.21 852 25.16 -5 23.1 68 -9.9 14.1
23:40 1023 30.21 852 25.16 -5 23 69 -9.8 14.3
23:45 1023 30.21 852 25.16 -4.9 23.2 64 -10.6 12.9
23:50 1023 30.21 852 25.16 -4.9 23.2 63 -10.9 12.4
23:55 1023 30.21 852 25.16 -5 23 65 -10.7 12.7
24:00 1023 30.21 852 25.16 -5.1 22.8 64 -10.9 12.3